Boyd Deep Canyon Reserve, California Weather observations

Data are for 10 minute period ending at time listed.
 Day   Time   Solar   Ave.   Ave.  Ave.  Vector  Max.   Baro.   Total    
  of    of     Rad.   Air    Rel.  Wind   Wind   Wind  Press.  Precip.   
Year   Day            Temp.  Hum.  Speed  Dir.   Gust                    
2014   (PST)  Kw/m2    F      %     mph   deg.    mph    mb.     in.     
-------------------------------------------------------------------------
 274    0:20   0.00   79.9    23    9.2   172    14.9   971.3    0.00 
 274    0:30   0.00   79.7    23    8.4   177    14.1   971.2    0.00 
 274    0:40   0.00   79.7    22    7.0   188    12.4   971.3    0.00 
 274    0:50   0.00   78.8    25    4.9   264    10.7   971.4    0.00 
 274    1:00   0.00   75.2    32    3.7   110     8.0   971.6    0.00 
 274    1:10   0.00   75.1    32    1.4    25     2.6   971.5    0.00 
 274    1:20   0.00   73.9    34    0.9    34     2.0   971.5    0.00 
 274    1:30   0.00   73.0    35    1.2    77     5.6   971.4    0.00 
 274    1:40   0.00   77.3    23   10.0   175    16.4   971.2    0.00 
 274    1:50   0.00   79.3    21   10.6   174    15.8   971.1    0.00 
 274    2:00   0.00   79.3    20    8.8   179    12.9   970.9    0.00 
 274    2:10   0.00   78.9    22    6.0   209    10.8   970.9    0.00 
 274    2:20   0.00   74.6    32    3.5   360     7.0   971.0    0.00 
 274    2:30   0.00   73.6    33    1.5   108     2.5   970.9    0.00 
 274    2:40   0.00   73.4    33    0.7    75     2.3   970.9    0.00 
 274    2:50   0.00   72.9    34    1.6    55     3.3   971.0    0.00 
 274    3:00   0.00   72.7    34    2.7    53     3.9   971.2    0.00 
 274    3:10   0.00   73.0    34    1.1    95     2.3   971.3    0.00 
 274    3:20   0.00   72.2    34    1.3   173     2.1   971.3    0.00 
 274    3:30   0.00   71.5    35    1.4   218     3.7   971.3    0.00 
 274    3:40   0.00   70.9    35    1.4   189     3.0   971.3    0.00 
 274    3:50   0.00   71.0    35    3.9   199     4.7   971.3    0.00 
 274    4:00   0.00   71.1    35    1.8   200     5.2   971.3    0.00 
 274    4:10   0.00   71.0    34    0.3    10     1.1   971.5    0.00 
 274    4:20   0.00   71.0    33    0.8   237     3.3   971.6    0.00 
 274    4:30   0.00   70.9    32    2.5   200     3.5   971.7    0.00 
 274    4:40   0.00   70.6    32    2.1   216     3.0   971.8    0.00 
 274    4:50   0.00   71.7    30    1.3   219     4.6   972.0    0.00 
 274    5:00   0.00   74.1    24    5.3   192     7.9   972.1    0.00 
 274    5:10   0.00   76.5    21    7.7   184    10.9   972.1    0.00 
 274    5:20   0.00   76.5    21    7.7   198    11.8   972.1    0.00 
 274    5:30   0.00   76.6    20    9.9   211    14.2   972.1    0.00 
 274    5:40   0.00   76.6    18   12.4   212    16.2   972.2    0.00 
 274    5:50   0.00   76.6    18   13.3   210    17.0   972.3    0.00 
 274    6:00   0.01   76.8    17   12.4   213    17.8   972.4    0.00 
 274    6:10   0.01   76.8    17    9.1   223    16.7   972.5    0.00 
 274    6:20   0.01   77.1    17    9.3   245    14.1   972.6    0.00 
 274    6:30   0.09   77.3    16    8.6   217    12.8   972.7    0.00 
 274    6:40   0.13   77.7    16    7.8   214    11.6   972.8    0.00 
 274    6:50   0.17   78.1    16    7.1   211    11.3   972.8    0.00 
 274    7:00   0.20   78.7    15    7.6   214    11.3   972.8    0.00 
 274    7:10   0.24   79.4    15    7.3   222    11.2   972.8    0.00 
 274    7:20   0.27   80.4    15    6.7   227    10.4   972.9    0.00 
 274    7:30   0.31   81.6    16    5.2   242    12.1   973.0    0.00 
 274    7:40   0.34   77.4    27    4.9    11     9.1   973.1    0.00 
 274    7:50   0.38   77.5    27    1.7    15     3.2   973.2    0.00 
 274    8:00   0.41   79.5    25    0.6    46     2.2   973.2    0.00 
 274    8:10   0.45   81.2    22    1.8   194     3.2   973.2    0.00 
 274    8:20   0.48   81.9    20    1.3   168     2.7   973.0    0.00 
 274    8:30   0.52   83.9    18    1.0    76     2.6   973.1    0.00 
 274    8:40   0.55   85.3    18    0.5    28     1.6   973.1    0.00 
 274    8:50   0.58   85.8    17    1.5     3     5.6   973.2    0.00 
 274    9:00   0.60   84.7    17    3.7    23     6.6   973.4    0.00 
 274    9:10   0.63   84.9    17    2.8    13     7.0   973.5    0.00 
 274    9:20   0.66   85.2    17    4.5    23     8.8   973.6    0.00 
 274    9:30   0.68   85.3    17    4.5    59     7.3   973.6    0.00 
 274    9:40   0.70   85.5    17    4.7    26     9.6   973.7    0.00 
 274    9:50   0.72   86.7    16    1.5    97     3.3   973.6    0.00 
 274   10:00   0.74   87.4    16    2.1   128     5.6   973.7    0.00 
 274   10:10   0.76   87.8    15    3.3    77     6.9   973.7    0.00 
 274   10:20   0.78   87.2    16    3.7   349     7.4   973.6    0.00 
 274   10:30   0.80   88.3    14    1.8   242     3.7   973.6    0.00 
 274   10:40   0.81   89.7    14    2.8    54     6.8   973.6    0.00 
 274   10:50   0.82   89.2    14    5.7     2    10.4   973.6    0.00 
 274   11:00   0.83   89.1    14    4.1     4     8.8   973.6    0.00 
 274   11:10   0.84   89.5    13    5.3    12     9.7   973.5    0.00 
 274   11:20   0.84   89.3    14    6.2   344    11.5   973.7    0.00 
 274   11:30   0.85   89.7    13    3.3   351     8.5   973.7    0.00 
 274   11:40   0.85   90.0    13    4.2   342     9.0   973.7    0.00 
 274   11:50   0.85   89.7    13    7.3   352    12.5   973.7    0.00 
 274   12:00   0.85   90.2    13    4.2     8     8.9   973.6    0.00 
 274   12:10   0.82   90.0    13    5.2    27    10.9   973.5    0.00 
 274   12:20   0.84   90.6    12    3.8    26     7.5   973.5    0.00 
 274   12:30   0.83   90.1    12    4.0    41     8.4   973.4    0.00 
 274   12:40   0.82   90.1    12    5.9   103    19.2   973.2    0.00 
 274   12:50   0.81   91.5    12    4.2   330     9.3   973.2    0.00 
 274   13:00   0.80   91.5    12    2.5    10     6.9   973.1    0.00 
 274   13:10   0.78   92.1    11    5.0   360    12.1   973.0    0.00 
 274   13:20   0.76   91.2    12    3.6    77     6.7   973.0    0.00 
 274   13:30   0.74   91.7    11    5.7   345    10.1   973.0    0.00 
 274   13:40   0.72   92.1    11    3.7    56     7.0   973.0    0.00 
 274   13:50   0.70   92.5    12    5.9     5     9.1   973.0    0.00 
 274   14:00   0.67   92.1    12    6.1   353    10.0   973.1    0.00 
 274   14:10   0.65   92.0    12    5.0    34    11.2   973.1    0.00 
 274   14:20   0.62   91.9    12    5.5    16    11.1   973.0    0.00 
 274   14:30   0.59   91.6    13    2.8    30     7.6   973.1    0.00 
 274   14:40   0.56   92.8    12    2.9   329    10.0   973.1    0.00 
 274   14:50   0.53   92.6    12    4.1   325     7.5   973.1    0.00 
 274   15:00   0.49   92.4    12    4.4   280     9.9   973.0    0.00 
 274   15:10   0.46   92.1    12    3.2   235     6.9   973.0    0.00 
 274   15:20   0.43   92.3    12    3.8   357     7.0   973.0    0.00 
 274   15:30   0.39   92.7    12    3.8   354     8.3   973.1    0.00 
 274   15:40   0.34   92.3    12    5.3   348     9.3   973.3    0.00 
 274   15:50   0.25   91.7    12    4.1    30     6.9   973.4    0.00 
 274   16:00   0.28   92.2    12    1.9   347     8.8   973.3    0.00 
 274   16:10   0.24   92.4    12    5.6     4     9.2   973.3    0.00 
 274   16:20   0.21   92.1    12    2.4    22     5.3   973.2    0.00 
 274   16:30   0.09   91.4    13    2.0    28     4.5   973.2    0.00 
 274   16:40   0.03   90.1    13    2.1    20     3.9   973.1    0.00 
 274   16:50   0.03   89.8    13    1.6    69     2.6   973.0    0.00 
 274   17:00   0.02   89.6    13    0.3   258     2.0   972.9    0.00 
 274   17:10   0.01   89.5    13    2.2   206     3.7   972.8    0.00 
 274   17:20   0.01   89.3    13    2.3   185     3.9   972.9    0.00 
 274   17:30   0.01   89.0    13    1.9   221     3.1   972.9    0.00 
 274   17:40   0.00   88.7    13    2.0   277     3.8   973.0    0.00 
 274   17:50   0.00   88.4    13    1.8   253     3.0   973.1    0.00 
 274   18:00   0.00   88.0    14    2.8   261     5.3   973.3    0.00 
 274   18:10   0.00   88.8    13    4.8   263     8.8   973.5    0.00 
 274   18:20   0.00   88.4    13    4.8   256     8.4   973.7    0.00 
 274   18:30   0.00   88.1    13    1.6   247     4.8   973.9    0.00 
 274   18:40   0.00   87.4    13    0.3    77     2.0   974.0    0.00 
 274   18:50   0.00   86.3    14    1.1   238     3.1   974.1    0.00 
 274   19:00   0.00   85.9    14    1.7   187     3.2   974.3    0.00 
 274   19:10   0.00   85.2    14    3.4   169     4.8   974.4    0.00 
 274   19:20   0.00   85.2    14    5.0   184     8.1   974.6    0.00 
 274   19:30   0.00   85.4    14    7.3   206    10.0   974.8    0.00 
 274   19:40   0.00   85.2    14    8.9   208    13.2   975.0    0.00 
 274   19:50   0.00   84.8    14    9.6   207    12.7   975.1    0.00 
 274   20:00   0.00   84.5    14    8.8   204    12.5   975.2    0.00 
 274   20:10   0.00   84.3    15    7.0   198     9.6   975.3    0.00 
 274   20:20   0.00   84.1    15    4.8   183     7.7   975.5    0.00 
 274   20:30   0.00   83.8    15    5.6   180     9.3   975.6    0.00 
 274   20:40   0.00   83.7    15    6.2   201     8.3   975.7    0.00 
 274   20:50   0.00   83.5    15    6.0   185     9.7   975.9    0.00 
 274   21:00   0.00   83.3    16    7.5   182    10.5   976.1    0.00 
 274   21:10   0.00   83.0    16    8.1   183    11.5   976.2    0.00 
 274   21:20   0.00   82.8    16    8.4   187    12.9   976.3    0.00 
 274   21:30   0.00   82.5    16    7.4   190    11.7   976.4    0.00 
 274   21:40   0.00   82.2    16    7.7   197    10.7   976.5    0.00 
 274   21:50   0.00   82.0    16    7.7   193    12.0   976.6    0.00 
 274   22:00   0.00   81.8    16    6.6   190    10.3   976.7    0.00 
 274   22:10   0.00   81.5    17    7.8   184    12.1   976.8    0.00 
 274   22:20   0.00   81.3    17    8.4   190    11.2   976.9    0.00 
 274   22:30   0.00   81.2    17    7.0   194    10.0   977.0    0.00 
 274   22:40   0.00   81.1    17    8.4   193    10.4   977.1    0.00 
 274   22:50   0.00   80.9    17    8.0   194    11.3   977.2    0.00 
 274   23:00   0.00   80.9    16    8.6   184    12.1   977.2    0.00 
 274   23:10   0.00   80.8    16    9.1   195    13.3   977.3    0.00 
 274   23:20   0.00   80.5    16    9.8   199    13.3   977.4    0.00 
 274   23:30   0.00   80.1    16    7.4   193    10.9   977.5    0.00 
 274   23:40   0.00   80.0    16    8.5   193    11.8   977.5    0.00 
 274   23:50   0.00   80.1    16    9.4   194    13.9   977.5    0.00 
 275    0:00   0.00   80.1    15   10.9   204    14.5   977.6    0.00 
 275    0:10   0.00   80.0    15   11.1   206    14.9   977.8    0.00 

Return to Boyd Deep Canyon Reserve graphs page.


Western Regional Climate Center,wrcc@dri.edu